createdAt,value
2019-02-18T00:03:44.292Z,100429.23
2019-02-18T00:06:12.808Z,100428.79
2019-02-18T00:08:41.280Z,100428.88
2019-02-18T00:11:09.762Z,100429.73
2019-02-18T00:13:38.497Z,100432.72
2019-02-18T00:16:06.986Z,100428.39
2019-02-18T00:18:35.469Z,100424.02
2019-02-18T00:21:03.961Z,100424.98
2019-02-18T00:23:32.454Z,100425.39
2019-02-18T00:26:00.952Z,100426.68
2019-02-18T00:28:29.450Z,100432.28
2019-02-18T00:30:57.938Z,100426.73
2019-02-18T00:33:26.434Z,100416.92
2019-02-18T00:35:54.932Z,100421.25
2019-02-18T00:38:23.508Z,100419.92
2019-02-18T00:40:51.988Z,100423.40
2019-02-18T00:43:20.490Z,100416.97
2019-02-18T00:45:49.010Z,100412.23
2019-02-18T00:48:17.497Z,100417.48
2019-02-18T00:50:45.956Z,100405.93
2019-02-18T00:53:14.442Z,100408.05
2019-02-18T00:55:42.873Z,100407.20
2019-02-18T00:58:11.365Z,100394.31
2019-02-18T01:00:39.988Z,100391.31
2019-02-18T01:03:08.478Z,100387.02
2019-02-18T01:05:36.979Z,100386.61
2019-02-18T01:08:05.464Z,100388.35
2019-02-18T01:10:33.951Z,100377.58
2019-02-18T01:13:02.384Z,100383.13
2019-02-18T01:15:30.880Z,100380.55
2019-02-18T01:17:59.377Z,100379.25
2019-02-18T01:20:27.855Z,100384.02
2019-02-18T01:22:56.292Z,100386.13
2019-02-18T01:25:24.780Z,100384.05
2019-02-18T01:27:53.269Z,100380.17
2019-02-18T01:30:21.746Z,100385.83
2019-02-18T01:32:50.393Z,100380.69
2019-02-18T01:35:18.883Z,100381.98
2019-02-18T01:37:47.510Z,100378.57
2019-02-18T01:40:16.015Z,100376.36
2019-02-18T01:42:44.486Z,100372.44
2019-02-18T01:45:15.676Z,100362.48
2019-02-18T01:47:44.244Z,100367.33
2019-02-18T01:50:14.381Z,100362.63
2019-02-18T01:52:42.864Z,100354.84
2019-02-18T01:55:12.728Z,100358.70
2019-02-18T01:57:41.287Z,100359.96
2019-02-18T02:00:14.874Z,100353.08
2019-02-18T02:02:43.284Z,100352.19
2019-02-18T02:05:13.581Z,100349.19
2019-02-18T02:07:42.071Z,100347.05
2019-02-18T02:10:12.617Z,100348.75
2019-02-18T02:12:41.044Z,100347.45
2019-02-18T02:15:12.733Z,100353.11
2019-02-18T02:17:41.221Z,100355.70
2019-02-18T02:20:09.862Z,100357.92
2019-02-18T02:22:38.335Z,100359.28
2019-02-18T02:25:06.835Z,100352.37
2019-02-18T02:27:35.328Z,100356.66
2019-02-18T02:30:04.958Z,100363.17
2019-02-18T02:32:33.434Z,100358.15
2019-02-18T02:35:01.923Z,100358.15
2019-02-18T02:37:30.405Z,100351.82
2019-02-18T02:39:58.825Z,100355.89
2019-02-18T02:42:27.376Z,100355.89
2019-02-18T02:44:55.943Z,100347.72
2019-02-18T02:47:24.447Z,100355.50
2019-02-18T02:49:52.941Z,100355.50
2019-02-18T02:52:21.412Z,100359.42
2019-02-18T02:54:49.967Z,100364.25
2019-02-18T02:57:18.517Z,100358.69
2019-02-18T02:59:46.994Z,100358.69
2019-02-18T03:02:15.544Z,100353.52
2019-02-18T03:04:43.984Z,100353.52
2019-02-18T03:07:12.468Z,100350.09
2019-02-18T03:09:41.008Z,100347.08
2019-02-18T03:12:09.415Z,100343.73
2019-02-18T03:14:37.837Z,100343.73
2019-02-18T03:17:06.335Z,100347.16
2019-02-18T03:19:34.809Z,100359.61
2019-02-18T03:22:03.242Z,100359.61
2019-02-18T03:24:31.743Z,100357.03
2019-02-18T03:27:00.295Z,100354.90
2019-02-18T03:29:52.943Z,100352.34
2019-02-18T03:32:21.493Z,100352.34
2019-02-18T03:34:49.903Z,100355.38
2019-02-18T03:37:18.462Z,100348.92
2019-02-18T03:39:46.929Z,100351.06
2019-02-18T03:42:15.416Z,100354.45
2019-02-18T03:44:43.886Z,100354.34
2019-02-18T03:47:12.385Z,100354.34
2019-02-18T03:49:40.873Z,100360.79
2019-02-18T03:52:09.822Z,100360.67
2019-02-18T03:54:38.232Z,100354.63
2019-02-18T03:57:06.647Z,100354.63
2019-02-18T03:59:35.073Z,100356.31
2019-02-18T04:02:03.567Z,100357.11
2019-02-18T04:04:32.135Z,100350.67
2019-02-18T04:07:00.558Z,100350.67
2019-02-18T04:09:28.989Z,100356.67
2019-02-18T04:11:57.542Z,100354.94
2019-02-18T04:14:25.953Z,100358.32
2019-02-18T04:16:54.507Z,100355.34
2019-02-18T04:19:23.070Z,100351.91
2019-02-18T04:21:51.497Z,100357.98
2019-02-18T04:24:19.968Z,100359.28
2019-02-18T04:26:48.470Z,100358.50
2019-02-18T04:29:16.864Z,100362.41
2019-02-18T04:31:45.432Z,100365.84
2019-02-18T04:34:13.909Z,100360.70
2019-02-18T04:36:42.410Z,100365.02
2019-02-18T04:39:10.890Z,100363.72
2019-02-18T04:41:39.329Z,100363.73
2019-02-18T04:44:07.747Z,100365.02
2019-02-18T04:46:36.158Z,100364.19
2019-02-18T04:49:04.646Z,100368.52
2019-02-18T04:51:33.131Z,100360.38
2019-02-18T04:54:01.560Z,100366.78
2019-02-18T04:56:29.988Z,100370.72
2019-02-18T04:58:58.622Z,100374.62
2019-02-18T05:01:27.054Z,100378.09
2019-02-18T05:03:55.546Z,100364.78
2019-02-18T05:06:25.547Z,100375.09
2019-02-18T05:09:04.859Z,100380.28
2019-02-18T05:11:24.606Z,100377.23
2019-02-18T05:13:53.125Z,100379.00
2019-02-18T05:16:21.651Z,100381.10
2019-02-18T05:18:50.095Z,100382.41
2019-02-18T05:21:18.587Z,100384.11
2019-02-18T05:23:47.244Z,100388.41
2019-02-18T05:26:15.879Z,100393.56
2019-02-18T05:28:44.447Z,100393.56
2019-02-18T05:31:13.152Z,100397.86
2019-02-18T05:33:41.784Z,100397.86
2019-02-18T05:36:10.362Z,100398.66
2019-02-18T05:38:38.997Z,100399.94
2019-02-18T05:41:07.520Z,100409.78
2019-02-18T05:43:36.194Z,100408.88
2019-02-18T05:46:04.870Z,100412.72
2019-02-18T05:48:34.147Z,100424.75
2019-02-18T05:51:02.905Z,100419.48
2019-02-18T05:53:31.545Z,100425.48
2019-02-18T05:56:00.113Z,100428.40
2019-02-18T05:58:28.695Z,100436.06
2019-02-18T06:00:57.249Z,100438.52
2019-02-18T06:03:25.820Z,100444.12
2019-02-18T06:05:54.305Z,100442.75
2019-02-18T06:08:22.931Z,100446.00
2019-02-18T06:10:51.423Z,100444.06
2019-02-18T06:13:20.044Z,100443.63
2019-02-18T06:15:48.714Z,100441.52
2019-02-18T06:18:17.207Z,100446.63
2019-02-18T06:20:45.776Z,100447.80
2019-02-18T06:23:14.383Z,100446.34
2019-02-18T06:25:42.975Z,100457.97
2019-02-18T06:28:11.452Z,100457.16
2019-02-18T06:30:39.948Z,100462.34
2019-02-18T06:33:08.499Z,100468.02
2019-02-18T06:35:36.919Z,100467.98
2019-02-18T06:38:05.484Z,100468.69
2019-02-18T06:40:34.048Z,100473.27
2019-02-18T06:43:02.665Z,100467.84
2019-02-18T06:45:35.735Z,100472.44
2019-02-18T06:48:08.617Z,100473.27
2019-02-18T06:50:37.123Z,100472.77
2019-02-18T06:53:05.612Z,100483.97
2019-02-18T06:55:34.100Z,100474.28
2019-02-18T06:58:20.319Z,100478.30
2019-02-18T07:03:38.507Z,100480.23
2019-02-18T07:08:56.179Z,100474.70
2019-02-18T07:11:26.313Z,100472.77
2019-02-18T07:13:54.794Z,100476.50
2019-02-18T07:16:23.288Z,100475.21
2019-02-18T07:18:51.775Z,100473.38
2019-02-18T07:21:20.319Z,100477.77
2019-02-18T07:23:49.053Z,100469.55
2019-02-18T07:26:17.600Z,100467.20
2019-02-18T07:28:46.014Z,100463.72
2019-02-18T07:31:15.163Z,100458.88
2019-02-18T07:33:44.265Z,100461.22
2019-02-18T07:36:13.241Z,100459.22
2019-02-18T07:38:42.317Z,100459.25
2019-02-18T07:41:11.323Z,100462.70
2019-02-18T07:43:40.460Z,100454.48
2019-02-18T07:46:09.613Z,100450.61
2019-02-18T07:48:38.619Z,100453.58
2019-02-18T07:51:07.644Z,100458.16
2019-02-18T07:53:36.780Z,100454.73
2019-02-18T07:56:05.865Z,100454.70
2019-02-18T07:58:34.888Z,100452.48
2019-02-18T08:01:04.023Z,100458.30
2019-02-18T08:03:33.115Z,100461.99
2019-02-18T08:06:02.219Z,100462.00
2019-02-18T08:08:31.236Z,100461.45
2019-02-18T08:11:00.318Z,100462.66
2019-02-18T08:13:29.354Z,100461.84
2019-02-18T08:15:58.359Z,100457.45
2019-02-18T08:18:27.528Z,100454.81
2019-02-18T08:20:56.946Z,100451.30
2019-02-18T08:23:26.086Z,100451.66
2019-02-18T08:25:55.159Z,100449.58
2019-02-18T08:28:24.242Z,100446.70
2019-02-18T08:30:53.337Z,100442.35
2019-02-18T08:33:22.474Z,100451.78
2019-02-18T08:35:51.508Z,100451.00
2019-02-18T08:38:20.738Z,100449.63
2019-02-18T08:40:49.836Z,100449.11
2019-02-18T08:43:18.994Z,100450.63
2019-02-18T08:45:48.104Z,100456.05
2019-02-18T08:48:17.117Z,100452.36
2019-02-18T08:50:46.149Z,100450.87
2019-02-18T08:53:15.250Z,100436.45
2019-02-18T08:55:44.279Z,100439.32
2019-02-18T08:58:13.369Z,100435.05
2019-02-18T09:00:42.365Z,100433.37
2019-02-18T09:03:11.467Z,100434.75
2019-02-18T09:05:40.564Z,100438.61
2019-02-18T09:08:09.589Z,100446.25
2019-02-18T09:10:38.716Z,100443.23
2019-02-18T09:13:07.734Z,100446.75
2019-02-18T09:15:36.882Z,100447.79
2019-02-18T09:18:06.049Z,100450.16
2019-02-18T09:20:35.095Z,100448.73
2019-02-18T09:23:08.224Z,100449.00
2019-02-18T09:25:38.893Z,100452.23
2019-02-18T09:28:08.048Z,100439.69
2019-02-18T09:30:38.793Z,100439.35
2019-02-18T09:33:07.872Z,100438.88
2019-02-18T09:35:36.901Z,100435.02
2019-02-18T09:38:06.146Z,100432.56
2019-02-18T09:40:44.286Z,100436.73
2019-02-18T09:43:06.149Z,100425.86
2019-02-18T09:45:35.297Z,100430.39
2019-02-18T09:48:04.398Z,100425.59
2019-02-18T09:50:33.526Z,100423.78
2019-02-18T09:53:02.695Z,100426.70
2019-02-18T09:55:31.749Z,100421.70
2019-02-18T09:58:00.935Z,100415.16
2019-02-18T10:00:30.018Z,100408.51
2019-02-18T10:02:59.192Z,100406.68
2019-02-18T10:05:28.345Z,100405.05
2019-02-18T10:07:57.483Z,100398.14
2019-02-18T10:10:26.636Z,100395.30
2019-02-18T10:12:55.736Z,100397.11
2019-02-18T10:15:24.899Z,100387.91
2019-02-18T10:17:54.050Z,100388.30
2019-02-18T10:20:23.140Z,100383.94
2019-02-18T10:22:52.178Z,100383.03
2019-02-18T10:25:21.312Z,100377.75
2019-02-18T10:27:50.505Z,100381.19
2019-02-18T10:30:20.771Z,100380.20
2019-02-18T10:32:49.983Z,100377.69
2019-02-18T10:35:19.073Z,100378.22
2019-02-18T10:37:54.885Z,100363.28
2019-02-18T10:40:19.016Z,100354.19
2019-02-18T10:42:48.174Z,100349.52
2019-02-18T10:45:17.193Z,100341.25
2019-02-18T10:47:46.251Z,100341.96
2019-02-18T10:50:15.417Z,100337.84
2019-02-18T10:52:44.576Z,100339.63
2019-02-18T10:55:13.740Z,100334.78
2019-02-18T10:57:42.823Z,100322.33
2019-02-18T11:00:16.383Z,100322.43
2019-02-18T11:02:45.471Z,100310.00
2019-02-18T11:05:14.564Z,100308.59
2019-02-18T11:07:43.722Z,100295.89
2019-02-18T11:10:16.907Z,100292.53
2019-02-18T11:12:47.669Z,100289.48
2019-02-18T11:15:16.954Z,100290.09
2019-02-18T11:17:46.447Z,100289.73
2019-02-18T11:20:15.461Z,100287.55
2019-02-18T11:22:44.621Z,100285.44
2019-02-18T11:25:15.434Z,100276.09
2019-02-18T11:27:44.433Z,100271.48
2019-02-18T11:30:39.256Z,100270.28
2019-02-18T11:33:08.377Z,100274.46
2019-02-18T11:35:37.376Z,100273.41
2019-02-18T11:38:06.451Z,100270.97
2019-02-18T11:40:35.985Z,100265.41
2019-02-18T11:43:05.053Z,100263.01
2019-02-18T11:45:34.880Z,100251.95
2019-02-18T11:48:04.118Z,100251.95
2019-02-18T11:50:33.149Z,100256.14
2019-02-18T11:53:02.153Z,100250.40
2019-02-18T11:55:31.191Z,100246.08
2019-02-18T11:58:00.272Z,100243.01
2019-02-18T12:00:29.288Z,100243.74
2019-02-18T12:03:03.110Z,100234.42
2019-02-18T12:05:29.190Z,100229.96
2019-02-18T12:07:58.288Z,100224.06
2019-02-18T12:10:27.409Z,100221.67
2019-02-18T12:12:56.400Z,100217.93
2019-02-18T12:15:25.429Z,100212.91
2019-02-18T12:17:54.527Z,100211.56
2019-02-18T12:20:23.762Z,100209.52
2019-02-18T12:22:52.862Z,100208.41
2019-02-18T12:25:22.566Z,100205.24
2019-02-18T12:27:51.736Z,100204.58
2019-02-18T12:30:20.904Z,100201.17
2019-02-18T12:32:49.995Z,100200.06
2019-02-18T12:35:19.175Z,100204.35
2019-02-18T12:37:55.235Z,100190.89
2019-02-18T12:40:19.218Z,100190.08
2019-02-18T12:42:48.309Z,100187.24
2019-02-18T12:45:17.455Z,100185.63
2019-02-18T12:47:46.739Z,100181.62
2019-02-18T12:50:15.899Z,100179.30
2019-02-18T12:52:45.008Z,100174.47
2019-02-18T12:55:14.849Z,100181.00
2019-02-18T12:57:44.223Z,100173.41
2019-02-18T13:00:14.458Z,100175.34
2019-02-18T13:02:45.052Z,100175.95
2019-02-18T13:05:14.641Z,100168.47
2019-02-18T13:07:43.799Z,100170.66
2019-02-18T13:10:13.041Z,100169.86
2019-02-18T13:12:42.580Z,100170.09
2019-02-18T13:15:19.036Z,100169.13
2019-02-18T13:17:49.878Z,100170.02
2019-02-18T13:20:19.051Z,100168.06
2019-02-18T13:22:48.068Z,100162.80
2019-02-18T13:25:17.242Z,100167.04
2019-02-18T13:27:46.631Z,100162.20
2019-02-18T13:30:18.565Z,100162.93
2019-02-18T13:32:47.668Z,100162.46
2019-02-18T13:35:16.842Z,100152.26
2019-02-18T13:37:45.929Z,100154.54
2019-02-18T13:40:16.575Z,100158.70
2019-02-18T13:42:45.977Z,100153.94
2019-02-18T13:45:15.190Z,100152.11
2019-02-18T13:47:44.258Z,100150.22
2019-02-18T13:50:14.002Z,100152.89
2019-02-18T13:52:43.087Z,100149.42
2019-02-18T13:55:12.927Z,100146.04
2019-02-18T13:57:42.367Z,100142.63
2019-02-18T14:00:20.274Z,100147.45
2019-02-18T14:02:50.317Z,100143.58
2019-02-18T14:05:21.049Z,100147.86
2019-02-18T14:07:50.118Z,100138.17
2019-02-18T14:10:20.321Z,100142.66
2019-02-18T14:12:49.380Z,100146.73
2019-02-18T14:15:18.956Z,100136.69
2019-02-18T14:17:48.053Z,100136.69
2019-02-18T14:20:18.262Z,100136.31
2019-02-18T14:22:47.344Z,100144.44
2019-02-18T14:25:16.761Z,100140.35
2019-02-18T14:27:45.815Z,100131.70
2019-02-18T14:30:16.512Z,100138.39
2019-02-18T14:32:45.613Z,100141.73
2019-02-18T14:35:16.592Z,100135.68
2019-02-18T14:37:45.735Z,100138.91
2019-02-18T14:40:17.282Z,100137.45
2019-02-18T14:42:46.455Z,100137.30
2019-02-18T14:45:15.804Z,100135.41
2019-02-18T14:47:44.822Z,100131.19
2019-02-18T14:50:16.582Z,100134.20
2019-02-18T14:52:45.946Z,100132.14
2019-02-18T14:55:15.141Z,100131.17
2019-02-18T14:57:44.237Z,100134.56
2019-02-18T15:00:23.192Z,100136.72
2019-02-18T15:02:54.144Z,100139.27
2019-02-18T15:05:23.657Z,100143.13
2019-02-18T15:07:52.665Z,100141.30
2019-02-18T15:10:21.693Z,100142.23
2019-02-18T15:12:50.727Z,100137.22
2019-02-18T15:15:19.909Z,100141.20
2019-02-18T15:17:49.070Z,100143.61
2019-02-18T15:20:18.537Z,100148.27
2019-02-18T15:22:47.629Z,100146.54
2019-02-18T15:25:16.761Z,100148.70
2019-02-18T15:27:45.780Z,100144.20
2019-02-18T15:30:15.905Z,100147.20
2019-02-18T15:32:45.068Z,100145.36
2019-02-18T15:35:15.314Z,100148.48
2019-02-18T15:37:44.540Z,100147.20
2019-02-18T15:40:15.285Z,100151.25
2019-02-18T15:42:44.441Z,100152.81
2019-02-18T15:45:13.681Z,100154.23
2019-02-18T15:47:42.776Z,100152.66
2019-02-18T15:50:13.018Z,100162.43
2019-02-18T15:52:42.197Z,100161.45
2019-02-18T15:55:11.740Z,100156.79
2019-02-18T15:57:40.927Z,100156.16
2019-02-18T16:00:13.350Z,100162.95
2019-02-18T16:02:42.549Z,100159.45
2019-02-18T16:05:11.581Z,100160.00
2019-02-18T16:07:40.706Z,100160.20
2019-02-18T16:10:09.982Z,100172.81
2019-02-18T16:12:39.079Z,100174.68
2019-02-18T16:15:09.816Z,100173.50
2019-02-18T16:17:38.896Z,100178.01
2019-02-18T16:20:11.531Z,100181.81
2019-02-18T16:22:40.714Z,100182.06
2019-02-18T16:25:15.768Z,100185.21
2019-02-18T16:27:44.859Z,100179.64
2019-02-18T16:30:15.244Z,100187.45
2019-02-18T16:32:44.753Z,100188.42
2019-02-18T16:35:13.933Z,100186.14
2019-02-18T16:37:43.473Z,100191.73
2019-02-18T16:40:17.606Z,100192.17
2019-02-18T16:42:46.694Z,100192.19
2019-02-18T16:45:16.010Z,100195.41
2019-02-18T16:47:45.235Z,100192.38
2019-02-18T16:50:14.324Z,100191.52
2019-02-18T16:52:43.482Z,100193.51
2019-02-18T16:55:14.079Z,100199.16
2019-02-18T16:57:43.098Z,100197.00
2019-02-18T17:00:21.302Z,100207.82
2019-02-18T17:02:51.079Z,100203.97
2019-02-18T17:05:20.448Z,100211.27
2019-02-18T17:07:49.625Z,100212.86
2019-02-18T17:10:18.843Z,100215.47
2019-02-18T17:12:48.023Z,100215.62
2019-02-18T17:15:17.097Z,100221.42
2019-02-18T17:17:46.375Z,100219.63
2019-02-18T17:20:15.602Z,100222.78
2019-02-18T17:22:44.805Z,100224.31
2019-02-18T17:25:14.462Z,100226.51
2019-02-18T17:27:44.006Z,100223.70
2019-02-18T17:30:17.173Z,100228.49
2019-02-18T17:32:46.424Z,100231.94
2019-02-18T17:35:15.761Z,100235.95
2019-02-18T17:37:45.004Z,100230.43
2019-02-18T17:40:14.809Z,100236.98
2019-02-18T17:42:45.899Z,100241.45
2019-02-18T17:45:17.577Z,100239.36
2019-02-18T17:47:46.813Z,100246.95
2019-02-18T17:50:16.695Z,100245.31
2019-02-18T17:52:46.551Z,100248.90
2019-02-18T17:55:19.555Z,100246.67
2019-02-18T17:57:48.718Z,100254.55
2019-02-18T18:00:24.874Z,100255.19
2019-02-18T18:02:53.978Z,100257.66
2019-02-18T18:05:23.209Z,100255.83
2019-02-18T18:07:52.450Z,100256.19
2019-02-18T18:10:21.884Z,100261.17
2019-02-18T18:12:51.685Z,100261.48
2019-02-18T18:15:20.844Z,100260.76
2019-02-18T18:17:50.012Z,100259.67
2019-02-18T18:20:19.271Z,100267.99
2019-02-18T18:22:48.449Z,100263.81
2019-02-18T18:25:17.848Z,100262.50
2019-02-18T18:27:47.112Z,100261.36
2019-02-18T18:30:19.774Z,100264.23
2019-02-18T18:32:48.885Z,100264.45
2019-02-18T18:35:18.057Z,100274.53
2019-02-18T18:37:48.589Z,100271.06
2019-02-18T18:40:19.315Z,100274.48
2019-02-18T18:42:48.494Z,100275.23
2019-02-18T18:45:18.284Z,100274.38
2019-02-18T18:47:47.523Z,100272.23
2019-02-18T18:50:18.662Z,100275.34
2019-02-18T18:52:48.162Z,100277.84
2019-02-18T18:55:17.328Z,100273.86
2019-02-18T19:00:19.757Z,100272.86
2019-02-18T19:02:48.396Z,100277.84
2019-02-18T19:05:17.664Z,100276.58
2019-02-18T19:07:46.917Z,100281.23
2019-02-18T19:10:16.073Z,100275.73
2019-02-18T19:12:45.268Z,100281.66
2019-02-18T19:15:15.717Z,100283.62
2019-02-18T19:17:44.958Z,100279.38
2019-02-18T19:20:14.508Z,100286.89
2019-02-18T19:22:43.616Z,100291.45
2019-02-18T19:25:12.960Z,100294.06
2019-02-18T19:27:42.291Z,100294.33
2019-02-18T19:30:17.485Z,100300.77
2019-02-18T19:32:47.126Z,100298.50
2019-02-18T19:35:16.361Z,100300.70
2019-02-18T19:37:45.006Z,100300.42
2019-02-18T19:40:14.873Z,100303.73
2019-02-18T19:42:44.069Z,100304.72
2019-02-18T19:45:15.851Z,100303.66
2019-02-18T19:47:45.228Z,100306.81
2019-02-18T19:50:14.451Z,100308.78
2019-02-18T19:52:43.936Z,100306.98
2019-02-18T19:55:12.810Z,100306.36
2019-02-18T19:57:41.968Z,100305.35
2019-02-18T20:00:19.251Z,100308.52
2019-02-18T20:02:48.010Z,100305.31
2019-02-18T20:05:16.595Z,100304.92
2019-02-18T20:07:45.259Z,100305.64
2019-02-18T20:10:14.436Z,100300.91
2019-02-18T20:12:43.604Z,100303.36
2019-02-18T20:15:16.630Z,100309.09
2019-02-18T20:17:45.286Z,100304.64
2019-02-18T20:20:17.439Z,100304.28
2019-02-18T20:22:47.678Z,100305.31
2019-02-18T20:25:16.265Z,100308.67
2019-02-18T20:27:45.287Z,100311.26
2019-02-18T20:30:17.664Z,100303.91
2019-02-18T20:32:46.291Z,100301.73
2019-02-18T20:35:14.923Z,100307.62
2019-02-18T20:37:43.565Z,100298.64
2019-02-18T20:40:12.293Z,100297.94
2019-02-18T20:42:41.321Z,100301.48
2019-02-18T20:45:12.661Z,100299.98
2019-02-18T20:47:41.325Z,100302.82
2019-02-18T20:50:12.027Z,100304.58
2019-02-18T20:52:40.656Z,100301.58
2019-02-18T20:55:11.887Z,100303.36
2019-02-18T20:57:40.657Z,100297.04
2019-02-18T21:00:15.758Z,100299.25
2019-02-18T21:02:44.403Z,100306.36
2019-02-18T21:05:13.039Z,100308.74
2019-02-18T21:07:41.707Z,100303.16
2019-02-18T21:10:13.424Z,100309.58
2019-02-18T21:12:42.075Z,100303.73
2019-02-18T21:15:10.720Z,100305.65
2019-02-18T21:17:39.288Z,100301.30
2019-02-18T21:20:09.999Z,100306.05
2019-02-18T21:22:38.431Z,100306.31
2019-02-18T21:25:08.644Z,100310.06
2019-02-18T21:27:37.293Z,100296.95
2019-02-18T21:30:09.037Z,100300.86
2019-02-18T21:32:37.604Z,100297.30
2019-02-18T21:35:06.631Z,100299.75
2019-02-18T21:37:35.274Z,100292.82
2019-02-18T21:40:05.267Z,100295.28
2019-02-18T21:42:33.903Z,100295.66
2019-02-18T21:45:02.541Z,100301.30
2019-02-18T21:47:31.190Z,100300.55
2019-02-18T21:49:59.852Z,100302.42
2019-02-18T21:52:28.494Z,100297.86
2019-02-18T21:54:57.445Z,100301.42
2019-02-18T21:57:25.995Z,100307.62
2019-02-18T21:59:54.558Z,100267.94
2019-02-18T22:02:23.461Z,100307.72
2019-02-18T22:04:52.046Z,100309.00
2019-02-18T22:07:20.695Z,100304.64
2019-02-18T22:09:49.649Z,100305.48
2019-02-18T22:12:18.214Z,100310.72
2019-02-18T22:14:46.856Z,100317.66
2019-02-18T22:17:15.408Z,100314.81
2019-02-18T22:19:44.039Z,100317.84
2019-02-18T22:22:12.588Z,100323.06
2019-02-18T22:24:41.076Z,100318.92
2019-02-18T22:27:09.991Z,100313.34
2019-02-18T22:29:38.466Z,100318.58
2019-02-18T22:32:06.975Z,100317.45
2019-02-18T22:34:35.464Z,100319.98
2019-02-18T22:37:04.117Z,100322.84
2019-02-18T22:39:32.683Z,100317.70
2019-02-18T22:42:01.246Z,100321.91
2019-02-18T22:44:30.159Z,100327.86
2019-02-18T22:46:58.815Z,100329.09
2019-02-18T22:49:27.407Z,100329.38
2019-02-18T22:51:55.968Z,100329.23
2019-02-18T22:54:24.517Z,100333.80
2019-02-18T22:56:53.079Z,100330.52
2019-02-18T22:59:21.543Z,100329.49
2019-02-18T23:01:50.596Z,100331.57
2019-02-18T23:04:19.228Z,100335.36
2019-02-18T23:06:47.856Z,100342.94
2019-02-18T23:09:16.485Z,100339.99
2019-02-18T23:11:45.031Z,100337.01
2019-02-18T23:14:13.589Z,100338.79
2019-02-18T23:16:42.103Z,100336.30
2019-02-18T23:19:10.573Z,100342.34
2019-02-18T23:21:40.528Z,100337.55
2019-02-18T23:24:09.180Z,100337.09
2019-02-18T23:26:37.810Z,100334.95
2019-02-18T23:29:06.444Z,100331.56
2019-02-18T23:31:34.867Z,100330.66
2019-02-18T23:34:03.739Z,100333.00
2019-02-18T23:36:32.313Z,100336.00
2019-02-18T23:39:00.881Z,100333.46
2019-02-18T23:41:29.440Z,100330.47
2019-02-18T23:43:58.014Z,100243.13
2019-02-18T23:46:26.583Z,100326.64
2019-02-18T23:48:55.147Z,100328.97
2019-02-18T23:51:23.905Z,100330.00
2019-02-18T23:53:52.561Z,100330.64
2019-02-18T23:56:21.123Z,100329.94
2019-02-18T23:58:49.752Z,100322.14
